createdAt,value
2018-12-30T00:02:02.855Z,5.87
2018-12-30T00:04:33.402Z,22.97
2018-12-30T00:07:23.173Z,7.03
2018-12-30T00:10:05.328Z,12.00
2018-12-30T00:12:35.827Z,6.47
2018-12-30T00:15:25.403Z,10.23
2018-12-30T00:17:57.454Z,4.87
2018-12-30T00:20:47.261Z,4.30
2018-12-30T00:23:38.747Z,2.90
2018-12-30T00:26:28.317Z,1.83
2018-12-30T00:29:18.387Z,2.53
2018-12-30T00:31:49.164Z,2.70
2018-12-30T00:34:38.754Z,1.70
2018-12-30T00:37:47.681Z,1.30
2018-12-30T00:40:18.298Z,2.35
2018-12-30T00:43:07.949Z,1.97
2018-12-30T00:45:50.583Z,1.17
2018-12-30T00:48:33.054Z,3.45
2018-12-30T00:51:17.159Z,0.90
2018-12-30T00:53:47.709Z,0.80
2018-12-30T00:56:39.230Z,1.00
2018-12-30T00:59:09.821Z,0.90
2018-12-30T01:01:59.786Z,1.67
2018-12-30T01:04:31.848Z,0.60
2018-12-30T01:07:22.597Z,2.50
2018-12-30T01:09:53.126Z,1.43
2018-12-30T01:12:42.690Z,1.00
2018-12-30T01:15:16.555Z,0.93
2018-12-30T01:18:06.114Z,0.90
2018-12-30T01:20:56.795Z,0.60
2018-12-30T01:23:27.482Z,0.70
2018-12-30T01:26:18.986Z,0.95
2018-12-30T01:29:08.590Z,0.70
2018-12-30T01:31:39.287Z,0.77
2018-12-30T01:34:28.869Z,1.60
2018-12-30T01:36:59.388Z,0.90
2018-12-30T01:39:30.175Z,2.00
2018-12-30T01:42:19.767Z,0.90
2018-12-30T01:44:50.301Z,1.00
2018-12-30T01:47:40.268Z,0.80
2018-12-30T01:50:22.257Z,3.00
2018-12-30T01:55:35.684Z,1.50
2018-12-30T01:58:25.667Z,0.83
2018-12-30T02:01:08.150Z,1.00
2018-12-30T02:03:38.764Z,2.00
2018-12-30T02:06:28.338Z,0.97
2018-12-30T02:09:38.915Z,1.03
2018-12-30T02:14:58.426Z,0.80
2018-12-30T02:17:31.205Z,1.33
2018-12-30T02:20:20.787Z,1.10
2018-12-30T02:22:51.302Z,1.07
2018-12-30T02:25:42.441Z,0.90
2018-12-30T02:28:46.609Z,1.05
2018-12-30T02:34:13.442Z,0.70
2018-12-30T02:36:43.958Z,0.63
2018-12-30T02:39:35.090Z,0.70
2018-12-30T02:42:24.702Z,0.70
2018-12-30T02:45:14.264Z,1.07
2018-12-30T02:47:44.780Z,0.90
2018-12-30T02:50:16.084Z,0.60
2018-12-30T02:52:46.858Z,0.83
2018-12-30T02:55:17.453Z,1.47
2018-12-30T02:57:48.048Z,0.60
2018-12-30T03:00:19.945Z,0.70
2018-12-30T03:02:50.606Z,0.80
2018-12-30T03:05:40.909Z,0.47
2018-12-30T03:08:23.349Z,0.60
2018-12-30T03:10:54.751Z,0.60
2018-12-30T03:13:46.002Z,0.83
2018-12-30T03:19:06.762Z,0.95
2018-12-30T03:22:12.505Z,0.90
2018-12-30T03:24:48.143Z,1.77
2018-12-30T03:27:18.708Z,0.50
2018-12-30T03:30:08.373Z,1.17
2018-12-30T03:32:58.180Z,0.80
2018-12-30T03:35:28.683Z,0.60
2018-12-30T03:37:59.182Z,0.70
2018-12-30T03:40:50.335Z,2.13
2018-12-30T03:43:36.517Z,0.70
2018-12-30T03:46:16.282Z,0.60
2018-12-30T03:48:46.232Z,0.93
2018-12-30T03:54:19.623Z,0.97
2018-12-30T03:56:50.116Z,0.70
2018-12-30T03:59:40.014Z,1.23
2018-12-30T04:02:29.679Z,0.60
2018-12-30T04:05:22.616Z,0.97
2018-12-30T04:08:12.366Z,0.70
2018-12-30T04:13:27.192Z,0.70
2018-12-30T04:19:03.516Z,0.63
2018-12-30T04:21:53.311Z,0.40
2018-12-30T04:24:35.137Z,0.60
2018-12-30T04:27:06.097Z,0.77
2018-12-30T04:29:36.588Z,0.60
2018-12-30T04:32:07.080Z,0.67
2018-12-30T04:34:56.753Z,0.70
2018-12-30T04:37:46.267Z,0.90
2018-12-30T04:40:18.344Z,0.77
2018-12-30T04:43:07.917Z,1.07
2018-12-30T04:45:50.193Z,1.27
2018-12-30T04:48:21.012Z,0.70
2018-12-30T04:50:51.504Z,0.67
2018-12-30T04:53:41.119Z,0.70
2018-12-30T04:56:23.171Z,0.70
2018-12-30T04:58:53.708Z,0.70
2018-12-30T05:01:43.595Z,1.60
2018-12-30T05:04:33.480Z,1.50
2018-12-30T05:07:15.263Z,0.67
2018-12-30T05:10:01.376Z,0.50
2018-12-30T05:12:31.915Z,0.70
2018-12-30T05:15:36.688Z,0.60
2018-12-30T05:18:08.795Z,0.50
2018-12-30T05:20:58.466Z,0.60
2018-12-30T05:23:40.909Z,0.53
2018-12-30T05:26:12.996Z,0.50
2018-12-30T05:28:45.106Z,0.50
2018-12-30T05:31:27.382Z,0.40
2018-12-30T05:33:57.906Z,0.50
2018-12-30T05:36:49.035Z,0.50
2018-12-30T05:39:31.097Z,0.30
2018-12-30T05:44:56.668Z,0.20
2018-12-30T05:47:46.591Z,0.30
2018-12-30T05:50:29.935Z,0.63
2018-12-30T05:53:00.594Z,0.53
2018-12-30T05:55:31.196Z,0.30
2018-12-30T05:58:01.674Z,0.30
2018-12-30T06:00:53.104Z,0.40
2018-12-30T06:03:42.716Z,0.27
2018-12-30T06:06:13.330Z,0.30
2018-12-30T06:08:43.847Z,0.50
2018-12-30T06:11:33.943Z,0.20
2018-12-30T06:16:47.757Z,1.93
2018-12-30T06:19:38.874Z,0.40
2018-12-30T06:22:28.636Z,0.20
2018-12-30T06:25:12.172Z,0.23
2018-12-30T06:27:54.752Z,0.30
2018-12-30T06:30:25.275Z,0.23
2018-12-30T06:33:14.914Z,0.40
2018-12-30T06:35:58.001Z,0.13
2018-12-30T06:38:29.041Z,0.43
2018-12-30T06:40:59.514Z,0.27
2018-12-30T06:43:49.392Z,0.23
2018-12-30T06:46:39.099Z,0.30
2018-12-30T06:49:21.031Z,0.30
2018-12-30T06:51:51.530Z,0.30
2018-12-30T06:54:41.130Z,0.93
2018-12-30T06:57:11.754Z,0.30
2018-12-30T06:59:42.279Z,0.20
2018-12-30T07:02:32.048Z,0.20
2018-12-30T07:05:02.556Z,0.30
2018-12-30T07:07:52.224Z,0.30
2018-12-30T07:10:36.619Z,0.20
2018-12-30T07:13:07.596Z,0.40
2018-12-30T07:15:57.163Z,0.20
2018-12-30T07:18:39.414Z,0.50
2018-12-30T07:24:12.016Z,0.20
2018-12-30T07:26:44.894Z,0.77
2018-12-30T07:29:15.418Z,0.20
2018-12-30T07:35:01.047Z,1.07
2018-12-30T07:38:02.357Z,0.20
2018-12-30T07:40:47.180Z,0.53
2018-12-30T07:43:17.689Z,0.63
2018-12-30T07:45:48.211Z,0.50
2018-12-30T07:48:37.779Z,0.43
2018-12-30T07:51:20.289Z,0.50
2018-12-30T07:53:50.795Z,0.50
2018-12-30T07:56:21.351Z,0.68
2018-12-30T07:59:12.519Z,0.40
2018-12-30T08:02:02.089Z,1.60
2018-12-30T08:04:44.443Z,2.53
2018-12-30T08:09:58.511Z,0.37
2018-12-30T08:12:48.106Z,0.30
2018-12-30T08:15:30.399Z,0.55
2018-12-30T08:18:02.517Z,0.43
2018-12-30T08:20:52.132Z,0.40
2018-12-30T08:23:34.487Z,0.40
2018-12-30T08:26:16.844Z,0.25
2018-12-30T08:28:59.116Z,1.33
2018-12-30T08:31:41.305Z,0.40
2018-12-30T08:34:23.452Z,0.43
2018-12-30T08:36:53.971Z,0.33
2018-12-30T08:39:24.456Z,0.40
2018-12-30T08:42:14.045Z,0.37
2018-12-30T08:45:03.635Z,0.50
2018-12-30T08:47:45.680Z,0.40
2018-12-30T08:50:16.195Z,1.10
2018-12-30T08:53:05.770Z,0.40
2018-12-30T08:55:47.435Z,0.40
2018-12-30T08:58:18.260Z,0.40
2018-12-30T09:01:07.859Z,0.50
2018-12-30T09:03:39.920Z,0.60
2018-12-30T09:06:29.827Z,0.90
2018-12-30T09:12:20.919Z,0.70
2018-12-30T09:15:10.474Z,0.50
2018-12-30T09:17:53.310Z,0.50
2018-12-30T09:20:35.888Z,0.60
2018-12-30T09:23:19.250Z,0.50
2018-12-30T09:26:03.524Z,0.53
2018-12-30T09:28:34.048Z,0.50
2018-12-30T09:31:23.689Z,0.50
2018-12-30T09:34:13.331Z,0.40
2018-12-30T09:36:56.653Z,4.27
2018-12-30T09:39:45.170Z,1.27
2018-12-30T09:42:15.819Z,1.75
2018-12-30T09:45:14.628Z,0.90
2018-12-30T09:50:37.029Z,0.80
2018-12-30T09:53:20.216Z,1.40
2018-12-30T09:55:50.710Z,0.47
2018-12-30T09:58:40.282Z,0.77
2018-12-30T10:01:31.404Z,0.87
2018-12-30T10:04:02.124Z,0.50
2018-12-30T10:06:51.699Z,1.90
2018-12-30T10:09:34.095Z,1.90
2018-12-30T10:12:04.611Z,0.77
2018-12-30T10:14:55.766Z,1.73
2018-12-30T10:17:45.371Z,1.03
2018-12-30T10:20:15.871Z,2.00
2018-12-30T10:23:05.783Z,1.50
2018-12-30T10:25:50.443Z,3.70
2018-12-30T10:28:34.783Z,1.47
2018-12-30T10:31:06.106Z,3.37
2018-12-30T10:33:55.800Z,3.43
2018-12-30T10:36:45.393Z,2.27
2018-12-30T10:42:29.556Z,1.10
2018-12-30T10:45:12.087Z,2.00
2018-12-30T10:47:54.683Z,1.30
2018-12-30T10:50:25.191Z,0.83
2018-12-30T10:53:14.814Z,1.90
2018-12-30T10:55:45.805Z,1.33
2018-12-30T10:58:55.897Z,1.00
2018-12-30T11:01:38.249Z,2.47
2018-12-30T11:04:20.995Z,2.20
2018-12-30T11:07:03.535Z,1.50
2018-12-30T11:09:34.079Z,1.23
2018-12-30T11:12:25.211Z,1.67
2018-12-30T11:15:07.471Z,2.47
2018-12-30T11:17:50.282Z,4.23
2018-12-30T11:20:34.066Z,1.30
2018-12-30T11:23:16.667Z,2.97
2018-12-30T11:25:59.239Z,1.73
2018-12-30T11:28:41.388Z,1.23
2018-12-30T11:31:24.653Z,1.43
2018-12-30T11:33:55.187Z,2.33
2018-12-30T11:36:44.757Z,1.37
2018-12-30T11:39:26.639Z,1.67
2018-12-30T11:42:08.895Z,1.67
2018-12-30T11:44:51.831Z,1.93
2018-12-30T11:47:34.308Z,1.70
2018-12-30T11:50:16.643Z,1.60
2018-12-30T11:52:58.482Z,1.63
2018-12-30T11:55:41.684Z,1.97
2018-12-30T11:58:24.595Z,1.80
2018-12-30T12:00:55.130Z,2.03
2018-12-30T12:03:44.794Z,0.80
2018-12-30T12:06:26.870Z,1.67
2018-12-30T12:09:09.176Z,0.70
2018-12-30T12:11:51.086Z,0.90
2018-12-30T12:14:33.199Z,1.23
2018-12-30T12:17:15.539Z,2.03
2018-12-30T12:19:58.015Z,1.00
2018-12-30T12:22:28.926Z,1.10
2018-12-30T12:25:18.507Z,1.57
2018-12-30T12:28:08.007Z,2.00
2018-12-30T12:30:52.027Z,2.20
2018-12-30T12:33:34.542Z,1.57
2018-12-30T12:36:05.063Z,1.27
2018-12-30T12:38:54.765Z,2.23
2018-12-30T12:41:44.547Z,1.50
2018-12-30T12:44:26.691Z,1.40
2018-12-30T12:47:10.932Z,1.03
2018-12-30T12:49:52.835Z,1.73
2018-12-30T12:52:35.157Z,1.20
2018-12-30T12:55:17.516Z,1.17
2018-12-30T12:57:59.778Z,2.03
2018-12-30T13:00:41.697Z,0.90
2018-12-30T13:03:23.519Z,1.13
2018-12-30T13:05:54.053Z,0.97
2018-12-30T13:08:43.625Z,1.73
2018-12-30T13:13:56.568Z,2.50
2018-12-30T13:19:21.756Z,0.80
2018-12-30T13:22:04.590Z,1.27
2018-12-30T13:24:46.548Z,1.50
2018-12-30T13:27:28.787Z,0.62
2018-12-30T13:30:11.190Z,0.80
2018-12-30T13:32:53.580Z,2.87
2018-12-30T13:35:43.156Z,1.27
2018-12-30T13:38:19.281Z,1.17
2018-12-30T13:41:02.320Z,1.10
2018-12-30T13:43:45.071Z,1.80
2018-12-30T13:46:15.594Z,4.00
2018-12-30T13:49:05.179Z,2.63
2018-12-30T13:51:47.908Z,1.77
2018-12-30T13:54:31.662Z,1.27
2018-12-30T13:57:02.175Z,0.93
2018-12-30T13:59:51.880Z,1.53
2018-12-30T14:02:22.491Z,1.37
2018-12-30T14:05:12.098Z,1.47
2018-12-30T14:07:55.599Z,0.60
2018-12-30T14:10:38.047Z,1.03
2018-12-30T14:13:09.175Z,1.30
2018-12-30T14:15:58.787Z,1.63
2018-12-30T14:18:48.451Z,2.13
2018-12-30T14:21:20.549Z,1.17
2018-12-30T14:24:10.208Z,2.00
2018-12-30T14:26:59.518Z,2.43
2018-12-30T14:29:35.823Z,0.80
2018-12-30T14:32:18.323Z,2.17
2018-12-30T14:34:48.825Z,1.20
2018-12-30T14:37:38.063Z,2.00
2018-12-30T14:40:21.241Z,4.47
2018-12-30T14:43:03.924Z,1.50
2018-12-30T14:45:46.096Z,1.30
2018-12-30T14:48:28.252Z,1.20
2018-12-30T14:51:10.381Z,1.40
2018-12-30T14:53:53.119Z,3.33
2018-12-30T14:56:35.340Z,1.60
2018-12-30T14:59:05.859Z,2.17
2018-12-30T15:01:36.826Z,1.50
2018-12-30T15:04:07.667Z,2.40
2018-12-30T15:06:57.721Z,1.57
2018-12-30T15:09:39.727Z,1.30
2018-12-30T15:12:22.095Z,1.40
2018-12-30T15:15:04.390Z,1.40
2018-12-30T15:17:46.875Z,2.10
2018-12-30T15:20:30.275Z,1.67
2018-12-30T15:23:15.278Z,1.43
2018-12-30T15:25:45.073Z,5.03
2018-12-30T15:28:15.546Z,2.47
2018-12-30T15:30:46.023Z,3.87
2018-12-30T15:33:35.583Z,1.43
2018-12-30T15:36:25.160Z,2.20
2018-12-30T15:39:07.236Z,1.93
2018-12-30T15:41:49.991Z,3.63
2018-12-30T15:44:32.083Z,2.60
2018-12-30T15:47:14.647Z,3.97
2018-12-30T15:49:57.340Z,1.90
2018-12-30T15:52:39.543Z,2.87
2018-12-30T15:55:23.295Z,1.57
2018-12-30T16:00:59.143Z,2.47
2018-12-30T16:03:41.203Z,3.13
2018-12-30T16:06:11.723Z,1.10
2018-12-30T16:09:01.500Z,1.13
2018-12-30T16:11:43.331Z,1.30
2018-12-30T16:14:25.916Z,1.25
2018-12-30T16:16:56.425Z,2.13
2018-12-30T16:19:26.895Z,4.23
2018-12-30T16:22:16.101Z,3.27
2018-12-30T16:25:05.867Z,2.60
2018-12-30T16:28:07.429Z,1.87
2018-12-30T16:30:49.336Z,3.43
2018-12-30T16:33:31.301Z,2.33
2018-12-30T16:36:13.602Z,2.33
2018-12-30T16:38:55.663Z,5.77
2018-12-30T16:41:37.467Z,3.20
2018-12-30T16:44:19.295Z,2.53
2018-12-30T16:47:02.089Z,2.87
2018-12-30T16:49:44.243Z,7.73
2018-12-30T16:52:14.873Z,4.57
2018-12-30T16:55:03.851Z,3.50
2018-12-30T16:57:34.233Z,3.83
2018-12-30T17:00:27.926Z,3.33
2018-12-30T17:03:17.555Z,5.23
2018-12-30T17:05:59.348Z,3.00
2018-12-30T17:08:41.752Z,3.67
2018-12-30T17:11:24.096Z,4.67
2018-12-30T17:14:05.803Z,2.87
2018-12-30T17:16:47.763Z,3.27
2018-12-30T17:19:29.691Z,4.77
2018-12-30T17:22:11.452Z,3.80
2018-12-30T17:24:53.955Z,6.53
2018-12-30T17:27:36.425Z,3.13
2018-12-30T17:30:18.835Z,5.03
2018-12-30T17:33:01.451Z,3.47
2018-12-30T17:35:43.699Z,2.97
2018-12-30T17:38:27.419Z,3.47
2018-12-30T17:41:09.216Z,4.00
2018-12-30T17:43:51.859Z,12.13
2018-12-30T17:46:33.956Z,6.00
2018-12-30T17:49:15.768Z,4.47
2018-12-30T17:51:57.901Z,5.70
2018-12-30T17:54:40.688Z,7.30
2018-12-30T17:57:12.135Z,7.50
2018-12-30T18:00:01.708Z,6.13
2018-12-30T18:02:54.624Z,6.97
2018-12-30T18:06:02.349Z,7.23
2018-12-30T18:08:44.731Z,7.67
2018-12-30T18:11:26.747Z,7.63
2018-12-30T18:14:09.515Z,9.53
2018-12-30T18:16:51.308Z,4.23
2018-12-30T18:19:33.703Z,5.40
2018-12-30T18:22:15.965Z,6.37
2018-12-30T18:24:58.641Z,8.40
2018-12-30T18:27:41.027Z,5.90
2018-12-30T18:30:23.399Z,7.57
2018-12-30T18:33:05.751Z,7.07
2018-12-30T18:35:36.497Z,5.83
2018-12-30T18:38:26.054Z,7.10
2018-12-30T18:41:15.636Z,6.17
2018-12-30T18:43:58.221Z,8.83
2018-12-30T18:46:41.031Z,5.90
2018-12-30T18:49:11.530Z,5.40
2018-12-30T18:52:01.106Z,5.33
2018-12-30T18:54:50.806Z,4.93
2018-12-30T19:00:21.123Z,4.00
2018-12-30T19:03:03.623Z,5.10
2018-12-30T19:05:34.146Z,4.93
2018-12-30T19:08:23.985Z,4.93
2018-12-30T19:11:07.400Z,4.67
2018-12-30T19:13:49.915Z,5.67
2018-12-30T19:16:35.769Z,7.23
2018-12-30T19:19:19.245Z,4.73
2018-12-30T19:22:01.103Z,4.40
2018-12-30T19:24:44.164Z,5.40
2018-12-30T19:27:14.687Z,2.83
2018-12-30T19:30:05.020Z,5.83
2018-12-30T19:32:55.100Z,3.07
2018-12-30T19:35:37.960Z,5.23
2018-12-30T19:38:20.296Z,6.13
2018-12-30T19:41:02.363Z,5.17
2018-12-30T19:46:16.378Z,5.70
2018-12-30T19:49:06.352Z,7.17
2018-12-30T19:51:48.810Z,6.83
2018-12-30T19:54:31.175Z,6.78
2018-12-30T19:57:13.751Z,8.50
2018-12-30T19:59:55.671Z,7.33
2018-12-30T20:02:37.905Z,6.67
2018-12-30T20:05:20.472Z,6.80
2018-12-30T20:23:04.877Z,5.70
2018-12-30T20:31:50.484Z,4.87
2018-12-30T20:40:33.659Z,4.93
2018-12-30T20:43:16.057Z,5.17
2018-12-30T20:45:58.272Z,5.47
2018-12-30T20:48:40.735Z,5.57
2018-12-30T20:51:22.809Z,7.00
2018-12-30T20:54:05.367Z,5.50
2018-12-30T20:56:47.664Z,5.63
2018-12-30T20:59:30.313Z,6.80
2018-12-30T21:02:00.810Z,6.03
2018-12-30T21:04:50.699Z,5.67
2018-12-30T21:07:41.833Z,3.87
2018-12-30T21:10:31.560Z,7.87
2018-12-30T21:16:33.058Z,6.07
2018-12-30T21:19:03.964Z,6.30
2018-12-30T21:21:52.955Z,6.77
2018-12-30T21:24:42.394Z,5.80
2018-12-30T21:27:26.192Z,6.40
2018-12-30T21:30:09.503Z,4.63
2018-12-30T21:32:40.028Z,4.53
2018-12-30T21:35:29.604Z,5.53
2018-12-30T21:38:11.604Z,6.47
2018-12-30T21:40:54.075Z,6.20
2018-12-30T21:43:37.116Z,6.47
2018-12-30T21:46:19.543Z,6.33
2018-12-30T21:49:01.968Z,6.50
2018-12-30T21:57:04.857Z,6.47
2018-12-30T21:59:47.196Z,8.87
2018-12-30T22:02:29.823Z,5.97
2018-12-30T22:05:00.355Z,6.80
2018-12-30T22:07:49.919Z,7.33
2018-12-30T22:10:32.191Z,6.97
2018-12-30T22:13:03.061Z,6.37
2018-12-30T22:15:52.909Z,5.30
2018-12-30T22:18:42.477Z,6.10
2018-12-30T22:21:25.930Z,5.83
2018-12-30T22:24:08.631Z,5.70
2018-12-30T22:26:50.688Z,6.07
2018-12-30T22:29:36.076Z,5.23
2018-12-30T22:32:18.547Z,6.57
2018-12-30T22:35:00.467Z,5.63
2018-12-30T22:37:42.473Z,4.53
2018-12-30T22:40:24.783Z,6.00
2018-12-30T22:43:07.344Z,5.37
2018-12-30T22:45:49.996Z,6.47
2018-12-30T22:48:32.583Z,5.90
2018-12-30T22:51:17.384Z,4.93
2018-12-30T22:53:59.889Z,4.30
2018-12-30T22:56:42.460Z,5.23
2018-12-30T22:59:24.940Z,5.53
2018-12-30T23:01:55.851Z,4.67
2018-12-30T23:04:46.142Z,5.08
2018-12-30T23:07:16.647Z,5.13
2018-12-30T23:10:06.235Z,5.43
2018-12-30T23:13:08.066Z,5.10
2018-12-30T23:15:50.719Z,6.60
2018-12-30T23:18:21.152Z,4.97
2018-12-30T23:21:10.728Z,5.27
2018-12-30T23:23:54.043Z,5.07
2018-12-30T23:26:36.919Z,5.43
2018-12-30T23:29:18.919Z,5.10
2018-12-30T23:32:00.788Z,3.83
2018-12-30T23:34:43.499Z,4.70
2018-12-30T23:37:26.120Z,3.97
2018-12-30T23:40:09.179Z,4.23
2018-12-30T23:42:40.448Z,6.05
2018-12-30T23:45:31.700Z,5.57
2018-12-30T23:48:03.792Z,4.93
2018-12-30T23:50:34.280Z,4.07
2018-12-30T23:53:24.226Z,3.43
2018-12-30T23:59:24.399Z,4.47
